Аэропорт: Адлер. Сочи

ICAO: URSS

METAR:
2021-10-23 00:30:00
URSS 230030Z 03006MPS 9999 NSC 10/05 Q1020 R02/010070 R06/010070 NOSIG RMK R06/00000MPS QFE764
METAR:
2021-10-22 22:55:00
TAF URSS 222255Z 2300/2324 05003G08MPS 9999 SCT100 BECMG 2307/2308 23003G08MPS BECMG 2315/2316 04003G08MPS